Etusivu
METAR-TAF:

METAR-TAF

Lentoasemat :

Lok Nayak Jayaprakashin lentoasema

Patna, Intia

Leveyspiiri: 25-36N, Pituuspiiri: 085-06E, korkeus merenpinnasta: 51 m

Tämänhetkinen sää

Tämä raportti tehtiin 47 minuuttia sitten, kello 13.00 UTC
Tuuli 8 kn idästä
Lämpötila 37°C
Kosteus 64%
Ilmanpaine 997 hPa
Näkyvyys: 5000 m
Hajanaisia pilviä 2000 ft:n korkeudessa
Hajonneita pilviä 10000 ft:n korkeudessa
usvaa,

METAR: VEPT 221300Z 09008KT 5000 HZ SCT020 BKN100 37/29 Q0997 NOSIG

Aika: 19:17 (13:47 UTC)

Sääennuste

Tämä raportti tehtiin 2 tuntia ja 47 minuuttia sitten, kello 11.00 UTC
Ennuste voimassa 22. päivästä klo 12 UTC - 22. päivään klo 21 UTC
Tuuli 8 kn idästä/koillisesta
Näkyvyys: 5000 m
Muutamia pilviä 2000 ft:n korkeudessa
Hajanaisia pilviä 10000 ft:n korkeudessa
usvaa
Tulossa
22. päivästä klo 19 UTC - 22. päivään klo 21 UTC
Tuuli 6 kn kaakosta
Näkyvyys: 2800 m
usvaa,

TAF: VEPT 221100Z 2212/2221 07008KT 5000 HZ FEW020 SCT100 BECMG 2219/2221 14006KT 2800 HZ

Säähavainnot ja -ennusteet yli 4000 lentoasemalta (METAR- ja TAF-raportit).

Käytössä olevat sääasemat on merkitty karttaan keltaisilla ja punaisilla pisteillä.

Aseta hiiri pisteen päälle nähdäksesi sääaseman nimen.

Klikkaa sitten nähdäksesi säähavainnot ja -ennusteet.

Kartan vaihtaminen: klikkaa mustalla rastilla varustettuja vihreitä pisteitä, niin voit zoomata sisään; viivalla varustettua vihreää pistettä, niin voit zoomata ulos tai vihreitä nuolia, niin pääset viereisille kartoille.


METAR-TAF: